Miguel Oliver — ECLX — position and weather

sailwx.info

Track history (hours):
 
Tides and Currents Weather Stations Pressure Air Temp Water Temp Dewpoint Dewpoint Depression Visibility Wind Speed Wind Dir Waves Ship Positions

Oceanographic research ship Miguel Oliver (Spain)

Ship's website: http://www.mapa.es/es/pesca/pags/miguel_web/index.htm

Last reported at 2015-Jul-07 12:29 UTC. Time now 2015-Jul-07 13:09 UTC.
Position N 39°40' E 000°23'.

Length 70 m; draft 4.8 m.

Type: Other ship. MMSI: 225322000.

Date/timePositionNaut miles runAvg speedWind from/ knotsBaromVisibWave heightAir tempDewpointWater temp
2015-Jul-07 12:29N 39°40' E 000°23'4 4.5
2015-Jul-07 11:33N 39°40' E 000°28'8 7.8
2015-Jul-07 10:33N 39°42' E 000°38'10 9.4
2015-Jul-07 09:31N 39°47' E 000°28'10 9.5
2015-Jul-07 08:29N 39°53' E 000°17'8 8.1
2015-Jul-07 07:33N 39°58' E 000°10'3 1.3
2015-Jul-07 05:26N 39°59' E 000°07'4 2.3
2015-Jul-07 03:33N 40°00' E 000°12'0 0.1
2015-Jul-07 02:33N 40°00' E 000°12'0 0.0
2015-Jul-07 01:33N 40°00' E 000°12'0 0.2
2015-Jul-07 00:33N 39°60' E 000°12'0 0.3
2015-Jul-06 23:31N 39°60' E 000°12'0 0.2
2015-Jul-06 22:33N 39°59' E 000°12'0 0.2
2015-Jul-06 21:29N 39°59' E 000°12'0 0.2
2015-Jul-06 20:33N 39°59' E 000°11'1 1.1
2015-Jul-06 19:33N 39°59' E 000°13'5 5.3
2015-Jul-06 18:33N 39°59' E 000°20'4 3.7
2015-Jul-06 17:33N 39°59' E 000°25'9 8.9
2015-Jul-06 16:33N 40°04' E 000°15'2 2.2
2015-Jul-06 15:32N 40°06' E 000°13'9 9.5
2015-Jul-06 14:33N 40°00' E 000°23'10 9.4
2015-Jul-06 13:31N 39°54' E 000°33'9 9.6
2015-Jul-06 12:32N 39°48' E 000°43'9 4.3
2015-Jul-06 10:33N 39°55' E 000°50'9 9.2
2015-Jul-06 09:32N 40°01' E 000°40'2 2.4
2015-Jul-06 08:33N 40°02' E 000°37'1 1.1
2015-Jul-06 07:33N 40°01' E 000°38'10 9.3
2015-Jul-06 06:30N 40°07' E 000°28'9 9.1
2015-Jul-06 05:32N 40°12' E 000°19'1 0.9
2015-Jul-06 04:33N 40°11' E 000°19'0 0.3
2015-Jul-06 03:23N 40°11' E 000°19'0 0.6
2015-Jul-06 02:33N 40°11' E 000°19'0 0.3
2015-Jul-06 01:33N 40°11' E 000°20'0 0.4
2015-Jul-06 00:33N 40°11' E 000°20'4 3.5
2015-Jul-05 23:33N 40°11' E 000°25'7 6.9
2015-Jul-05 22:33N 40°10' E 000°34'5 5.4
2015-Jul-05 21:33N 40°09' E 000°41'3 3.1
2015-Jul-05 20:33N 40°08' E 000°44'9 9.0
2015-Jul-05 19:33N 40°02' E 000°54'5 5.3
2015-Jul-05 18:33N 39°59' E 000°60'2 1.9
2015-Jul-05 17:33N 40°00' E 000°58'9 8.6
2015-Jul-05 16:33N 40°05' E 000°48'9 8.8
2015-Jul-05 15:33N 40°11' E 000°39'9 8.7
2015-Jul-05 14:33N 40°16' E 000°30'5 4.7
2015-Jul-05 13:33N 40°20' E 000°30'5 4.7
2015-Jul-05 12:33N 40°22' E 000°36'3 3.5
2015-Jul-05 11:33N 40°20' E 000°40'5 5.3
2015-Jul-05 10:33N 40°17' E 000°45'9 9.5
2015-Jul-05 09:33N 40°12' E 000°55'2 2.0
2015-Jul-05 08:33N 40°13' E 000°53'7 7.3
2015-Jul-05 07:33N 40°09' E 001°01'1 1.2
2015-Jul-05 06:33N 40°08' E 001°02'4 4.2
2015-Jul-05 05:33N 40°06' E 001°07'1 0.6
2015-Jul-05 04:33N 40°06' E 001°06'0 0.5
2015-Jul-05 03:33N 40°06' E 001°06'1 0.7
2015-Jul-05 02:33N 40°06' E 001°06'1 0.5
2015-Jul-05 01:33N 40°05' E 001°07'1 1.0
2015-Jul-05 00:33N 40°06' E 001°06'5 4.8
2015-Jul-04 23:33N 40°10' E 001°02'5 5.2
2015-Jul-04 22:33N 40°15' E 000°59'5 5.2
2015-Jul-04 21:33N 40°20' E 000°57'2 2.0
2015-Jul-04 20:33N 40°22' E 000°56'0 0.4
2015-Jul-04 19:33N 40°21' E 000°56'1 0.8
2015-Jul-04 18:33N 40°22' E 000°55'8 8.2
2015-Jul-04 17:33N 40°27' E 000°47'5 5.1
2015-Jul-04 16:32N 40°30' E 000°42'7 6.3
2015-Jul-04 15:29N 40°26' E 000°48'8 8.4
2015-Jul-04 14:33N 40°21' E 000°57'3 3.0
2015-Jul-04 13:33N 40°19' E 000°60'10 9.5
2015-Jul-04 12:33N 40°14' E 001°10'2 2.3
2015-Jul-04 11:33N 40°13' E 001°13'4 3.9
2015-Jul-04 10:33N 40°16' E 001°15'7 7.2
2015-Jul-04 09:33N 40°23' E 001°11'8 7.5
2015-Jul-04 08:33N 40°27' E 001°03'4 3.6
2015-Jul-04 07:33N 40°25' E 001°07'7 7.3
2015-Jul-04 06:33N 40°29' E 000°59'7 3.5
2015-Jul-04 04:32N 40°33' E 000°51'1 0.7
2015-Jul-04 03:33N 40°33' E 000°52'1 0.7
2015-Jul-04 02:33N 40°33' E 000°53'1 0.7
2015-Jul-04 01:33N 40°33' E 000°54'1 0.7
2015-Jul-04 00:33N 40°34' E 000°55'0 0.4
2015-Jul-03 23:33N 40°34' E 000°55'4 4.3
2015-Jul-03 22:33N 40°38' E 000°57'2 2.0
2015-Jul-03 21:33N 40°40' E 000°57'1 0.6
2015-Jul-03 20:33N 40°40' E 000°58'2 2.2
2015-Jul-03 19:33N 40°41' E 001°00'3 2.7
2015-Jul-03 18:33N 40°43' E 001°03'2 1.7
2015-Jul-03 17:33N 40°44' E 001°05'8 7.5
2015-Jul-03 16:33N 40°40' E 000°56'5 4.5
2015-Jul-03 15:29N 40°38' E 001°01'910.0
2015-Jul-03 14:33N 40°33' E 001°12'1 0.8
2015-Jul-03 13:33N 40°32' E 001°12'0 0.4
2015-Jul-03 12:33N 40°32' E 001°12'8 8.2
2015-Jul-03 11:33N 40°28' E 001°21'5 5.0
2015-Jul-03 10:33N 40°33' E 001°22'8 8.4
2015-Jul-03 09:33N 40°40' E 001°15'10 9.8
2015-Jul-03 08:33N 40°46' E 001°05'10 9.8
2015-Jul-03 07:33N 40°51' E 000°54'2 1.7
2015-Jul-03 06:33N 40°50' E 000°56'5 5.4
2015-Jul-03 05:33N 40°53' E 000°50'0 0.3
2015-Jul-03 04:33N 40°53' E 000°50'1 0.6
2015-Jul-03 03:32N 40°53' E 000°51'1 1.3
2015-Jul-03 02:33N 40°55' E 000°51'1 0.8
2015-Jul-03 01:33N 40°54' E 000°52'1 1.0
2015-Jul-03 00:33N 40°54' E 000°53'3 3.2
2015-Jul-02 23:33N 40°55' E 000°57'5 4.8
2015-Jul-02 22:33N 40°56' E 001°03'6 4.8
2015-Jul-02 21:24N 40°58' E 001°10'4 3.9
2015-Jul-02 20:30N 40°59' E 001°15'8 8.7
2015-Jul-02 19:31N 40°51' E 001°19'5 5.2
2015-Jul-02 18:33N 40°46' E 001°21'8 7.8
2015-Jul-02 17:33N 40°51' E 001°12'3 3.3
2015-Jul-02 16:33N 40°49' E 001°16'8 7.9
2015-Jul-02 15:33N 40°54' E 001°07'10 9.7
2015-Jul-02 14:33N 40°59' E 000°57'1 0.5
2015-Jul-02 13:32N 40°59' E 000°58'1010.2
2015-Jul-02 12:33N 41°00' E 001°11'3 3.2
2015-Jul-02 11:33N 41°02' E 001°08'10 9.7
2015-Jul-02 10:33N 40°57' E 001°19'6 5.7
2015-Jul-02 09:33N 41°03' E 001°21'5 4.5
2015-Jul-02 08:32N 41°07' E 001°24'7 7.0
2015-Jul-02 07:33N 41°01' E 001°28'4 3.6
2015-Jul-02 06:32N 41°04' E 001°26'4 4.0
2015-Jul-02 05:33N 41°01' E 001°29'2 1.6
2015-Jul-02 04:33N 41°02' E 001°27'0 0.3
2015-Jul-02 03:33N 41°02' E 001°28'4 3.9
2015-Jul-02 02:31N 41°05' E 001°25'1 1.4
2015-Jul-02 01:33N 41°04' E 001°26'1 1.3
2015-Jul-02 00:33N 41°03' E 001°27'3 2.6
2015-Jul-01 23:24N 41°04' E 001°31'5 5.3
2015-Jul-01 22:32N 41°06' E 001°37'5 5.4
2015-Jul-01 21:33N 41°07' E 001°44'5 5.3
2015-Jul-01 20:33N 41°08' E 001°50'1 1.2
2015-Jul-01 19:33N 41°09' E 001°49'7 7.0
2015-Jul-01 18:33N 41°10' E 001°40'9 8.1
2015-Jul-01 17:27N 41°03' E 001°33'7 7.6
2015-Jul-01 16:33N 41°09' E 001°28'6 6.1
2015-Jul-01 15:30N 41°07' E 001°37'3 3.2
2015-Jul-01 14:33N 41°08' E 001°40'3 3.5
2015-Jul-01 13:33N 41°06' E 001°37'4 4.3
2015-Jul-01 12:33N 41°09' E 001°40'6 6.1
2015-Jul-01 11:33N 41°06' E 001°48'4 4.3
2015-Jul-01 10:32N 41°10' E 001°52'5 5.2
2015-Jul-01 09:33N 41°13' E 001°57'1 1.1
2015-Jul-01 08:33N 41°12' E 001°56'2 2.4
2015-Jul-01 07:33N 41°10' E 001°57'4 4.1
2015-Jul-01 06:33N 41°11' E 002°02'4 3.6
2015-Jul-01 05:33N 41°15' E 002°00'1 0.7
2015-Jul-01 04:33N 41°14' E 002°01'1 0.9
2015-Jul-01 03:33N 41°13' E 002°01'0 0.2
2015-Jul-01 02:33N 41°14' E 002°01'1 0.9
2015-Jul-01 01:33N 41°14' E 002°01'0 0.4
2015-Jul-01 00:32N 41°14' E 002°01'0 0.1
2015-Jun-30 23:33N 41°14' E 002°01'1 1.1
2015-Jun-30 22:33N 41°14' E 002°02'5 5.0
2015-Jun-30 21:33N 41°15' E 002°09'6 6.4
2015-Jun-30 20:33N 41°17' E 002°17'4 3.7
2015-Jun-30 19:33N 41°19' E 002°21'9 8.7
2015-Jun-30 18:33N 41°17' E 002°10'5 4.7
2015-Jun-30 17:33N 41°13' E 002°08'4 3.7
2015-Jun-30 16:33N 41°16' E 002°05'3 3.0
2015-Jun-30 15:33N 41°15' E 002°09'1 1.4
2015-Jun-30 14:33N 41°16' E 002°07'2 2.4
2015-Jun-30 13:33N 41°17' E 002°10'4 4.1
2015-Jun-30 12:33N 41°19' E 002°15'4 4.5
2015-Jun-30 11:33N 41°20' E 002°20'7 5.8
2015-Jun-30 10:23N 41°27' E 002°20'810.2
2015-Jun-30 09:33N 41°20' E 002°27'0 0.3
2015-Jun-30 08:33N 41°20' E 002°27'4 4.1
2015-Jun-30 07:33N 41°23' E 002°24'7 7.1
2015-Jun-30 06:33N 41°21' E 002°33'10 9.7
2015-Jun-30 05:33N 41°29' E 002°25'0 0.2
2015-Jun-30 04:33N 41°29' E 002°25'2 2.3
2015-Jun-30 03:31N 41°27' E 002°27'3 3.0
2015-Jun-30 02:30N 41°25' E 002°30'0 0.4
2015-Jun-30 01:31N 41°25' E 002°30'0 0.5
2015-Jun-30 00:33N 41°26' E 002°30'1 0.5
2015-Jun-29 23:32N 41°26' E 002°30'1 0.5
2015-Jun-29 22:26N 41°27' E 002°30'4 1.2
2015-Jun-29 19:32N 41°25' E 002°34'3 3.4
2015-Jun-29 18:33N 41°23' E 002°38'3 3.1
2015-Jun-29 17:33N 41°26' E 002°35'8 7.6
2015-Jun-29 16:33N 41°33' E 002°34'7 7.2
2015-Jun-29 15:33N 41°27' E 002°38'3 3.3
2015-Jun-29 14:33N 41°29' E 002°42'3 3.4
2015-Jun-29 13:33N 41°30' E 002°37'7 7.4
2015-Jun-29 12:33N 41°26' E 002°46'7 6.9
2015-Jun-29 11:33N 41°32' E 002°42'5 4.8
2015-Jun-29 10:32N 41°37' E 002°44'4 4.5
2015-Jun-29 09:33N 41°37' E 002°50'4 4.0
2015-Jun-29 08:28N 41°39' E 002°55'8 9.0
2015-Jun-29 07:32N 41°32' E 003°02'4 3.8
2015-Jun-29 06:30N 41°36' E 002°59'2 0.7
2015-Jun-29 03:30N 41°34' E 003°01'4 4.0
2015-Jun-29 02:33N 41°38' E 002°59'4 3.5
2015-Jun-29 01:32N 41°41' E 002°57'0 0.4
2015-Jun-29 00:30N 41°41' E 002°57'0 0.4
2015-Jun-28 23:30N 41°41' E 002°56'0 0.4
2015-Jun-28 22:33N 41°41' E 002°56'0 0.4
2015-Jun-28 21:32N 41°41' E 002°55'1 0.7
2015-Jun-28 19:25N 41°42' E 002°56'11 1.2
2015-Jun-28 10:29N 41°44' E 003°11'9 9.8
2015-Jun-28 09:33N 41°37' E 003°19'15 3.8
2015-Jun-28 05:28N 41°51' E 003°10'1 0.8
2015-Jun-28 04:19N 41°50' E 003°11'1 1.4
2015-Jun-28 03:33N 41°51' E 003°12'1 0.3
2015-Jun-28 01:23N 41°51' E 003°12'0 0.3
2015-Jun-28 00:33N 41°51' E 003°12'0 0.2
2015-Jun-27 23:33N 41°50' E 003°12'3 2.2
2015-Jun-27 22:21N 41°51' E 003°15'4 3.6
2015-Jun-27 21:12N 41°55' E 003°16'2 3.1
2015-Jun-27 20:32N 41°57' E 003°15'10 1.6
2015-Jun-27 14:33N 42°03' E 003°26'  
Track history (hours):
 
Tides and Currents Weather Stations Pressure Air Temp Water Temp Dewpoint Dewpoint Depression Visibility Wind Speed Wind Dir Waves Ship Positions

Oceanographic research ship Miguel Oliver (Spain)

Ship's website: http://www.mapa.es/es/pesca/pags/miguel_web/index.htm

Last reported at 2015-Jul-07 12:29 UTC. Time now 2015-Jul-07 13:09 UTC.
Position N 39°40' E 000°23'.

Length 70 m; draft 4.8 m.

Type: Other ship. MMSI: 225322000.

Date/timePositionNaut miles runAvg speedWind from/ knotsBaromVisibWave heightAir tempDewpointWater temp
2015-Jul-07 12:29N 39°40' E 000°23'4 4.5
2015-Jul-07 11:33N 39°40' E 000°28'8 7.8
2015-Jul-07 10:33N 39°42' E 000°38'10 9.4
2015-Jul-07 09:31N 39°47' E 000°28'10 9.5
2015-Jul-07 08:29N 39°53' E 000°17'8 8.1
2015-Jul-07 07:33N 39°58' E 000°10'3 1.3
2015-Jul-07 05:26N 39°59' E 000°07'4 2.3
2015-Jul-07 03:33N 40°00' E 000°12'0 0.1
2015-Jul-07 02:33N 40°00' E 000°12'0 0.0
2015-Jul-07 01:33N 40°00' E 000°12'0 0.2
2015-Jul-07 00:33N 39°60' E 000°12'0 0.3
2015-Jul-06 23:31N 39°60' E 000°12'0 0.2
2015-Jul-06 22:33N 39°59' E 000°12'0 0.2
2015-Jul-06 21:29N 39°59' E 000°12'0 0.2
2015-Jul-06 20:33N 39°59' E 000°11'1 1.1
2015-Jul-06 19:33N 39°59' E 000°13'5 5.3
2015-Jul-06 18:33N 39°59' E 000°20'4 3.7
2015-Jul-06 17:33N 39°59' E 000°25'9 8.9
2015-Jul-06 16:33N 40°04' E 000°15'2 2.2
2015-Jul-06 15:32N 40°06' E 000°13'9 9.5
2015-Jul-06 14:33N 40°00' E 000°23'10 9.4
2015-Jul-06 13:31N 39°54' E 000°33'9 9.6
2015-Jul-06 12:32N 39°48' E 000°43'9 4.3
2015-Jul-06 10:33N 39°55' E 000°50'9 9.2
2015-Jul-06 09:32N 40°01' E 000°40'2 2.4
2015-Jul-06 08:33N 40°02' E 000°37'1 1.1
2015-Jul-06 07:33N 40°01' E 000°38'10 9.3
2015-Jul-06 06:30N 40°07' E 000°28'9 9.1
2015-Jul-06 05:32N 40°12' E 000°19'1 0.9
2015-Jul-06 04:33N 40°11' E 000°19'0 0.3
2015-Jul-06 03:23N 40°11' E 000°19'0 0.6
2015-Jul-06 02:33N 40°11' E 000°19'0 0.3
2015-Jul-06 01:33N 40°11' E 000°20'0 0.4
2015-Jul-06 00:33N 40°11' E 000°20'4 3.5
2015-Jul-05 23:33N 40°11' E 000°25'7 6.9
2015-Jul-05 22:33N 40°10' E 000°34'5 5.4
2015-Jul-05 21:33N 40°09' E 000°41'3 3.1
2015-Jul-05 20:33N 40°08' E 000°44'9 9.0
2015-Jul-05 19:33N 40°02' E 000°54'5 5.3
2015-Jul-05 18:33N 39°59' E 000°60'2 1.9
2015-Jul-05 17:33N 40°00' E 000°58'9 8.6
2015-Jul-05 16:33N 40°05' E 000°48'9 8.8
2015-Jul-05 15:33N 40°11' E 000°39'9 8.7
2015-Jul-05 14:33N 40°16' E 000°30'5 4.7
2015-Jul-05 13:33N 40°20' E 000°30'5 4.7
2015-Jul-05 12:33N 40°22' E 000°36'3 3.5
2015-Jul-05 11:33N 40°20' E 000°40'5 5.3
2015-Jul-05 10:33N 40°17' E 000°45'9 9.5
2015-Jul-05 09:33N 40°12' E 000°55'2 2.0
2015-Jul-05 08:33N 40°13' E 000°53'7 7.3
2015-Jul-05 07:33N 40°09' E 001°01'1 1.2
2015-Jul-05 06:33N 40°08' E 001°02'4 4.2
2015-Jul-05 05:33N 40°06' E 001°07'1 0.6
2015-Jul-05 04:33N 40°06' E 001°06'0 0.5
2015-Jul-05 03:33N 40°06' E 001°06'1 0.7
2015-Jul-05 02:33N 40°06' E 001°06'1 0.5
2015-Jul-05 01:33N 40°05' E 001°07'1 1.0
2015-Jul-05 00:33N 40°06' E 001°06'5 4.8
2015-Jul-04 23:33N 40°10' E 001°02'5 5.2
2015-Jul-04 22:33N 40°15' E 000°59'5 5.2
2015-Jul-04 21:33N 40°20' E 000°57'2 2.0
2015-Jul-04 20:33N 40°22' E 000°56'0 0.4
2015-Jul-04 19:33N 40°21' E 000°56'1 0.8
2015-Jul-04 18:33N 40°22' E 000°55'8 8.2
2015-Jul-04 17:33N 40°27' E 000°47'5 5.1
2015-Jul-04 16:32N 40°30' E 000°42'7 6.3
2015-Jul-04 15:29N 40°26' E 000°48'8 8.4
2015-Jul-04 14:33N 40°21' E 000°57'3 3.0
2015-Jul-04 13:33N 40°19' E 000°60'10 9.5
2015-Jul-04 12:33N 40°14' E 001°10'2 2.3
2015-Jul-04 11:33N 40°13' E 001°13'4 3.9
2015-Jul-04 10:33N 40°16' E 001°15'7 7.2
2015-Jul-04 09:33N 40°23' E 001°11'8 7.5
2015-Jul-04 08:33N 40°27' E 001°03'4 3.6
2015-Jul-04 07:33N 40°25' E 001°07'7 7.3
2015-Jul-04 06:33N 40°29' E 000°59'7 3.5
2015-Jul-04 04:32N 40°33' E 000°51'1 0.7
2015-Jul-04 03:33N 40°33' E 000°52'1 0.7
2015-Jul-04 02:33N 40°33' E 000°53'1 0.7
2015-Jul-04 01:33N 40°33' E 000°54'1 0.7
2015-Jul-04 00:33N 40°34' E 000°55'0 0.4
2015-Jul-03 23:33N 40°34' E 000°55'4 4.3
2015-Jul-03 22:33N 40°38' E 000°57'2 2.0
2015-Jul-03 21:33N 40°40' E 000°57'1 0.6
2015-Jul-03 20:33N 40°40' E 000°58'2 2.2
2015-Jul-03 19:33N 40°41' E 001°00'3 2.7
2015-Jul-03 18:33N 40°43' E 001°03'2 1.7
2015-Jul-03 17:33N 40°44' E 001°05'8 7.5
2015-Jul-03 16:33N 40°40' E 000°56'5 4.5
2015-Jul-03 15:29N 40°38' E 001°01'910.0
2015-Jul-03 14:33N 40°33' E 001°12'1 0.8
2015-Jul-03 13:33N 40°32' E 001°12'0 0.4
2015-Jul-03 12:33N 40°32' E 001°12'8 8.2
2015-Jul-03 11:33N 40°28' E 001°21'5 5.0
2015-Jul-03 10:33N 40°33' E 001°22'8 8.4
2015-Jul-03 09:33N 40°40' E 001°15'10 9.8
2015-Jul-03 08:33N 40°46' E 001°05'10 9.8
2015-Jul-03 07:33N 40°51' E 000°54'2 1.7
2015-Jul-03 06:33N 40°50' E 000°56'5 5.4
2015-Jul-03 05:33N 40°53' E 000°50'0 0.3
2015-Jul-03 04:33N 40°53' E 000°50'1 0.6
2015-Jul-03 03:32N 40°53' E 000°51'1 1.3
2015-Jul-03 02:33N 40°55' E 000°51'1 0.8
2015-Jul-03 01:33N 40°54' E 000°52'1 1.0
2015-Jul-03 00:33N 40°54' E 000°53'3 3.2
2015-Jul-02 23:33N 40°55' E 000°57'5 4.8
2015-Jul-02 22:33N 40°56' E 001°03'6 4.8
2015-Jul-02 21:24N 40°58' E 001°10'4 3.9
2015-Jul-02 20:30N 40°59' E 001°15'8 8.7
2015-Jul-02 19:31N 40°51' E 001°19'5 5.2
2015-Jul-02 18:33N 40°46' E 001°21'8 7.8
2015-Jul-02 17:33N 40°51' E 001°12'3 3.3
2015-Jul-02 16:33N 40°49' E 001°16'8 7.9
2015-Jul-02 15:33N 40°54' E 001°07'10 9.7
2015-Jul-02 14:33N 40°59' E 000°57'1 0.5
2015-Jul-02 13:32N 40°59' E 000°58'1010.2
2015-Jul-02 12:33N 41°00' E 001°11'3 3.2
2015-Jul-02 11:33N 41°02' E 001°08'10 9.7
2015-Jul-02 10:33N 40°57' E 001°19'6 5.7
2015-Jul-02 09:33N 41°03' E 001°21'5 4.5
2015-Jul-02 08:32N 41°07' E 001°24'7 7.0
2015-Jul-02 07:33N 41°01' E 001°28'4 3.6
2015-Jul-02 06:32N 41°04' E 001°26'4 4.0
2015-Jul-02 05:33N 41°01' E 001°29'2 1.6
2015-Jul-02 04:33N 41°02' E 001°27'0 0.3
2015-Jul-02 03:33N 41°02' E 001°28'4 3.9
2015-Jul-02 02:31N 41°05' E 001°25'1 1.4
2015-Jul-02 01:33N 41°04' E 001°26'1 1.3
2015-Jul-02 00:33N 41°03' E 001°27'3 2.6
2015-Jul-01 23:24N 41°04' E 001°31'5 5.3
2015-Jul-01 22:32N 41°06' E 001°37'5 5.4
2015-Jul-01 21:33N 41°07' E 001°44'5 5.3
2015-Jul-01 20:33N 41°08' E 001°50'1 1.2
2015-Jul-01 19:33N 41°09' E 001°49'7 7.0
2015-Jul-01 18:33N 41°10' E 001°40'9 8.1
2015-Jul-01 17:27N 41°03' E 001°33'7 7.6
2015-Jul-01 16:33N 41°09' E 001°28'6 6.1
2015-Jul-01 15:30N 41°07' E 001°37'3 3.2
2015-Jul-01 14:33N 41°08' E 001°40'3 3.5
2015-Jul-01 13:33N 41°06' E 001°37'4 4.3
2015-Jul-01 12:33N 41°09' E 001°40'6 6.1
2015-Jul-01 11:33N 41°06' E 001°48'4 4.3
2015-Jul-01 10:32N 41°10' E 001°52'5 5.2
2015-Jul-01 09:33N 41°13' E 001°57'1 1.1
2015-Jul-01 08:33N 41°12' E 001°56'2 2.4
2015-Jul-01 07:33N 41°10' E 001°57'4 4.1
2015-Jul-01 06:33N 41°11' E 002°02'4 3.6
2015-Jul-01 05:33N 41°15' E 002°00'1 0.7
2015-Jul-01 04:33N 41°14' E 002°01'1 0.9
2015-Jul-01 03:33N 41°13' E 002°01'0 0.2
2015-Jul-01 02:33N 41°14' E 002°01'1 0.9
2015-Jul-01 01:33N 41°14' E 002°01'0 0.4
2015-Jul-01 00:32N 41°14' E 002°01'0 0.1
2015-Jun-30 23:33N 41°14' E 002°01'1 1.1
2015-Jun-30 22:33N 41°14' E 002°02'5 5.0
2015-Jun-30 21:33N 41°15' E 002°09'6 6.4
2015-Jun-30 20:33N 41°17' E 002°17'4 3.7
2015-Jun-30 19:33N 41°19' E 002°21'9 8.7
2015-Jun-30 18:33N 41°17' E 002°10'5 4.7
2015-Jun-30 17:33N 41°13' E 002°08'4 3.7
2015-Jun-30 16:33N 41°16' E 002°05'3 3.0
2015-Jun-30 15:33N 41°15' E 002°09'1 1.4
2015-Jun-30 14:33N 41°16' E 002°07'2 2.4
2015-Jun-30 13:33N 41°17' E 002°10'4 4.1
2015-Jun-30 12:33N 41°19' E 002°15'4 4.5
2015-Jun-30 11:33N 41°20' E 002°20'7 5.8
2015-Jun-30 10:23N 41°27' E 002°20'810.2
2015-Jun-30 09:33N 41°20' E 002°27'0 0.3
2015-Jun-30 08:33N 41°20' E 002°27'4 4.1
2015-Jun-30 07:33N 41°23' E 002°24'7 7.1
2015-Jun-30 06:33N 41°21' E 002°33'10 9.7
2015-Jun-30 05:33N 41°29' E 002°25'0 0.2
2015-Jun-30 04:33N 41°29' E 002°25'2 2.3
2015-Jun-30 03:31N 41°27' E 002°27'3 3.0
2015-Jun-30 02:30N 41°25' E 002°30'0 0.4
2015-Jun-30 01:31N 41°25' E 002°30'0 0.5
2015-Jun-30 00:33N 41°26' E 002°30'1 0.5
2015-Jun-29 23:32N 41°26' E 002°30'1 0.5
2015-Jun-29 22:26N 41°27' E 002°30'4 1.2
2015-Jun-29 19:32N 41°25' E 002°34'3 3.4
2015-Jun-29 18:33N 41°23' E 002°38'3 3.1
2015-Jun-29 17:33N 41°26' E 002°35'8 7.6
2015-Jun-29 16:33N 41°33' E 002°34'7 7.2
2015-Jun-29 15:33N 41°27' E 002°38'3 3.3
2015-Jun-29 14:33N 41°29' E 002°42'3 3.4
2015-Jun-29 13:33N 41°30' E 002°37'7 7.4
2015-Jun-29 12:33N 41°26' E 002°46'7 6.9
2015-Jun-29 11:33N 41°32' E 002°42'5 4.8
2015-Jun-29 10:32N 41°37' E 002°44'4 4.5
2015-Jun-29 09:33N 41°37' E 002°50'4 4.0
2015-Jun-29 08:28N 41°39' E 002°55'8 9.0
2015-Jun-29 07:32N 41°32' E 003°02'4 3.8
2015-Jun-29 06:30N 41°36' E 002°59'2 0.7
2015-Jun-29 03:30N 41°34' E 003°01'4 4.0
2015-Jun-29 02:33N 41°38' E 002°59'4 3.5
2015-Jun-29 01:32N 41°41' E 002°57'0 0.4
2015-Jun-29 00:30N 41°41' E 002°57'0 0.4
2015-Jun-28 23:30N 41°41' E 002°56'0 0.4
2015-Jun-28 22:33N 41°41' E 002°56'0 0.4
2015-Jun-28 21:32N 41°41' E 002°55'1 0.7
2015-Jun-28 19:25N 41°42' E 002°56'11 1.2
2015-Jun-28 10:29N 41°44' E 003°11'9 9.8
2015-Jun-28 09:33N 41°37' E 003°19'15 3.8
2015-Jun-28 05:28N 41°51' E 003°10'1 0.8
2015-Jun-28 04:19N 41°50' E 003°11'1 1.4
2015-Jun-28 03:33N 41°51' E 003°12'1 0.3
2015-Jun-28 01:23N 41°51' E 003°12'0 0.3
2015-Jun-28 00:33N 41°51' E 003°12'0 0.2
2015-Jun-27 23:33N 41°50' E 003°12'3 2.2
2015-Jun-27 22:21N 41°51' E 003°15'4 3.6
2015-Jun-27 21:12N 41°55' E 003°16'2 3.1
2015-Jun-27 20:32N 41°57' E 003°15'10 1.6
2015-Jun-27 14:33N 42°03' E 003°26'  

Dump ship's entire track history